Time;durP1;ratioP1;P1;durP2;ratioP2;P2;SDS_P1;SDS_P2;PMS_P1;PMS_P2;Temp;Humidity;BMP_temperature;BMP_pressure;BME280_temperature;BME280_humidity;BME280_pressure;Samples;Min_cycle;Max_cycle;Signal;HPM_P1;HPM_P2
2021/08/06 00:02:09;;;;;;;560.33;480.73;;;;;;;;;;4953512;28;20110;-85
2021/08/06 00:04:59;;;;;;;562.53;483.35;;;;;;;;;;4951780;29;20508;-83
2021/08/06 00:07:25;;;;;;;563.53;480.00;;;;;;;;;;4949843;29;20043;-82
2021/08/06 00:09:51;;;;;;;562.58;481.27;;;;;;;;;;4940177;28;20035;-84
2021/08/06 00:12:17;;;;;;;559.47;478.42;;;;;;;;;;4935505;28;20077;-83
2021/08/06 00:14:43;;;;;;;558.17;476.73;;;;;;;;;;4952276;28;20092;-84
2021/08/06 00:17:16;;;;;;;557.38;474.80;;;;;;;;;;4953339;28;20027;-83
2021/08/06 00:19:42;;;;;;;554.72;469.25;;;;;;;;;;4947277;29;20027;-85
2021/08/06 00:22:07;;;;;;;554.08;470.17;;;;;;;;;;4947246;28;20043;-82
2021/08/06 00:24:33;;;;;;;558.78;479.58;;;;;;;;;;4942810;28;20472;-84
2021/08/06 00:26:59;;;;;;;558.53;476.45;;;;;;;;;;4960881;28;20370;-82
2021/08/06 00:29:29;;;;;;;557.97;475.75;;;;;;;;;;4956465;28;20031;-81
2021/08/06 00:31:55;;;;;;;557.65;476.00;;;;;;;;;;4956125;28;20061;-82
2021/08/06 00:34:20;;;;;;;560.25;478.85;;;;;;;;;;4955233;28;20077;-84
2021/08/06 00:36:46;;;;;;;558.25;471.45;;;;;;;;;;4956469;28;20054;-83
2021/08/06 00:39:12;;;;;;;560.35;477.55;;;;;;;;;;4956196;28;20037;-84
2021/08/06 00:41:41;;;;;;;558.88;477.13;;;;;;;;;;4950344;28;20019;-83
2021/08/06 00:44:07;;;;;;;558.90;477.13;;;;;;;;;;4942683;28;20023;-84
2021/08/06 00:46:33;;;;;;;562.28;479.88;;;;;;;;;;4969572;28;20515;-84
2021/08/06 00:49:00;;;;;;;563.20;481.67;;;;;;;;;;4960927;28;20041;-84
2021/08/06 00:51:26;;;;;;;561.78;484.90;;;;;;;;;;4955370;28;20540;-83
2021/08/06 00:53:59;;;;;;;558.53;475.10;;;;;;;;;;4980933;28;20019;-82
2021/08/06 00:56:24;;;;;;;559.22;476.08;;;;;;;;;;4963750;28;20480;-83
2021/08/06 00:58:51;;;;;;;559.40;475.02;;;;;;;;;;4957644;28;20069;-84
2021/08/06 01:01:19;;;;;;;557.30;473.08;;;;;;;;;;4962303;28;20111;-85
2021/08/06 01:06:52;;;;;;;555.90;462.38;;;;;;;;;;4969019;28;20026;-83
2021/08/06 01:09:40;;;;;;;399.08;323.95;;;;;;;;;;4973248;28;20027;-84
2021/08/06 01:12:09;;;;;;;559.13;472.95;;;;;;;;;;4973671;28;20418;-85
2021/08/06 01:14:37;;;;;;;558.20;472.42;;;;;;;;;;4963517;28;20026;-85
2021/08/06 01:17:16;;;;;;;556.42;471.27;;;;;;;;;;4953680;28;20626;-83
2021/08/06 01:19:48;;;;;;;559.13;469.53;;;;;;;;;;4952252;28;20050;-83
2021/08/06 01:22:35;;;;;;;555.08;465.75;;;;;;;;;;4952293;28;20058;-85
2021/08/06 01:25:08;;;;;;;557.10;464.90;;;;;;;;;;4940346;28;20039;-84
2021/08/06 01:27:36;;;;;;;558.00;469.20;;;;;;;;;;4960850;28;20601;-82
2021/08/06 01:30:04;;;;;;;555.75;464.42;;;;;;;;;;4955640;28;20018;-81
2021/08/06 01:32:50;;;;;;;558.63;467.10;;;;;;;;;;4953718;28;20030;-84
2021/08/06 01:35:16;;;;;;;560.58;470.10;;;;;;;;;;4956060;28;20166;-84
2021/08/06 01:37:42;;;;;;;557.70;468.10;;;;;;;;;;4955225;28;20487;-80
2021/08/06 01:40:09;;;;;;;558.88;471.50;;;;;;;;;;4958328;28;20089;-83
2021/08/06 01:42:35;;;;;;;558.95;468.33;;;;;;;;;;4972623;28;20019;-83
2021/08/06 01:45:06;;;;;;;560.88;473.70;;;;;;;;;;5006510;28;20054;-82
2021/08/06 01:47:32;;;;;;;561.53;471.05;;;;;;;;;;4950252;28;20394;-84
2021/08/06 01:49:59;;;;;;;560.15;468.60;;;;;;;;;;4955287;28;20027;-83
2021/08/06 01:52:28;;;;;;;557.30;474.60;;;;;;;;;;4970114;28;20083;-83
2021/08/06 01:54:55;;;;;;;551.33;464.27;;;;;;;;;;4952694;29;20115;-81
2021/08/06 01:57:22;;;;;;;557.13;474.17;;;;;;;;;;4935864;29;20437;-80
2021/08/06 01:59:48;;;;;;;551.67;458.60;;;;;;;;;;4987132;28;20035;-83
2021/08/06 02:02:14;;;;;;;552.22;459.83;;;;;;;;;;4956761;28;20034;-85
2021/08/06 02:04:40;;;;;;;555.10;464.25;;;;;;;;;;4953575;28;20027;-83
2021/08/06 02:07:07;;;;;;;557.05;474.88;;;;;;;;;;4962070;28;20489;-84
2021/08/06 02:09:35;;;;;;;555.88;473.55;;;;;;;;;;4942534;28;20081;-84
2021/08/06 02:12:01;;;;;;;552.97;467.48;;;;;;;;;;4964808;28;20123;-82
2021/08/06 02:14:27;;;;;;;552.15;467.52;;;;;;;;;;4981675;28;20047;-83
2021/08/06 02:17:30;;;;;;;554.40;470.15;;;;;;;;;;4991263;28;20027;-83
2021/08/06 02:19:58;;;;;;;552.00;464.10;;;;;;;;;;4990509;28;20020;-84
2021/08/06 02:22:24;;;;;;;551.35;457.58;;;;;;;;;;4979402;28;20081;-83
2021/08/06 02:24:50;;;;;;;552.33;464.70;;;;;;;;;;4956763;28;20031;-83
2021/08/06 02:27:18;;;;;;;554.13;467.17;;;;;;;;;;4935209;29;20031;-83
2021/08/06 02:30:09;;;;;;;554.25;464.40;;;;;;;;;;4945899;28;20023;-83
2021/08/06 02:32:35;;;;;;;556.22;472.20;;;;;;;;;;4952374;28;20023;-84
2021/08/06 02:35:02;;;;;;;554.38;469.63;;;;;;;;;;4939113;28;20073;-84
2021/08/06 02:37:28;;;;;;;556.05;470.05;;;;;;;;;;4970291;28;20023;-83
2021/08/06 02:39:54;;;;;;;555.67;471.50;;;;;;;;;;4954890;28;20059;-85
2021/08/06 02:42:36;;;;;;;555.13;472.10;;;;;;;;;;4965279;28;20107;-85
2021/08/06 02:45:03;;;;;;;554.13;467.83;;;;;;;;;;4943818;28;20126;-84
2021/08/06 02:47:29;;;;;;;554.33;468.63;;;;;;;;;;4969723;28;20035;-84
2021/08/06 02:49:55;;;;;;;550.55;461.33;;;;;;;;;;4954514;28;20029;-84
2021/08/06 02:52:21;;;;;;;553.42;469.98;;;;;;;;;;4954128;28;20045;-82
2021/08/06 02:54:53;;;;;;;550.25;466.00;;;;;;;;;;4947206;28;20030;-84
2021/08/06 02:57:19;;;;;;;549.35;458.73;;;;;;;;;;4948417;28;20023;-85
2021/08/06 02:59:45;;;;;;;549.60;463.52;;;;;;;;;;4951273;28;20019;-85
2021/08/06 03:02:10;;;;;;;551.20;462.02;;;;;;;;;;4938149;28;20702;-84
2021/08/06 03:04:36;;;;;;;552.47;463.38;;;;;;;;;;4953117;28;20061;-85
2021/08/06 03:07:04;;;;;;;554.08;467.45;;;;;;;;;;4971252;28;20080;-82
2021/08/06 03:09:30;;;;;;;282.75;246.95;;;;;;;;;;4953124;28;20039;-83
2021/08/06 03:11:56;;;;;;;556.47;463.65;;;;;;;;;;4935237;28;20023;-85
2021/08/06 03:14:22;;;;;;;557.88;468.35;;;;;;;;;;4968814;28;20031;-82
2021/08/06 03:16:48;;;;;;;556.75;465.95;;;;;;;;;;4969949;28;20573;-82
2021/08/06 03:19:38;;;;;;;558.28;471.92;;;;;;;;;;4954308;28;22146;-84
2021/08/06 03:22:04;;;;;;;559.67;468.75;;;;;;;;;;4949647;28;20047;-82
2021/08/06 03:24:30;;;;;;;556.00;469.60;;;;;;;;;;4968738;28;20041;-80
2021/08/06 03:26:56;;;;;;;559.00;475.77;;;;;;;;;;4939183;28;20110;-84
2021/08/06 03:29:22;;;;;;;558.83;474.33;;;;;;;;;;4952549;28;20042;-86
2021/08/06 03:31:48;;;;;;;558.58;471.10;;;;;;;;;;4946867;28;20055;-83
2021/08/06 03:34:14;;;;;;;557.67;472.45;;;;;;;;;;4958380;28;20808;-84
2021/08/06 03:36:40;;;;;;;562.30;479.77;;;;;;;;;;4968741;28;20587;-81
2021/08/06 03:39:06;;;;;;;558.60;477.35;;;;;;;;;;4957106;28;20675;-82
2021/08/06 03:41:51;;;;;;;558.80;476.88;;;;;;;;;;4970307;28;20263;-84
2021/08/06 03:44:17;;;;;;;560.13;479.33;;;;;;;;;;4950331;28;20494;-84
2021/08/06 03:46:43;;;;;;;558.75;473.52;;;;;;;;;;4972690;28;20725;-86
2021/08/06 03:49:09;;;;;;;553.53;472.20;;;;;;;;;;4957179;28;20037;-84
2021/08/06 03:51:35;;;;;;;557.53;475.23;;;;;;;;;;4974626;28;20153;-85
2021/08/06 03:54:26;;;;;;;558.78;477.02;;;;;;;;;;4956260;28;20840;-85
2021/08/06 03:56:52;;;;;;;553.75;465.40;;;;;;;;;;4974182;28;20128;-82
2021/08/06 03:59:18;;;;;;;555.72;470.75;;;;;;;;;;4956646;28;20130;-84
2021/08/06 04:01:43;;;;;;;556.92;472.52;;;;;;;;;;4949000;28;20050;-82
2021/08/06 04:04:09;;;;;;;558.60;476.63;;;;;;;;;;4951358;28;20039;-84
2021/08/06 04:07:13;;;;;;;561.30;478.15;;;;;;;;;;4955603;28;20076;-82
2021/08/06 04:09:39;;;;;;;560.92;470.60;;;;;;;;;;4969124;28;20031;-81
2021/08/06 04:12:05;;;;;;;559.22;467.67;;;;;;;;;;4956004;28;20041;-86
2021/08/06 04:14:31;;;;;;;559.45;475.70;;;;;;;;;;4953222;28;20131;-85
2021/08/06 04:16:56;;;;;;;557.30;472.63;;;;;;;;;;4938581;28;20054;-83
2021/08/06 04:20:00;;;;;;;554.92;469.42;;;;;;;;;;4938798;28;20031;-84
2021/08/06 04:22:26;;;;;;;554.33;464.63;;;;;;;;;;4955822;28;20088;-83
2021/08/06 04:24:52;;;;;;;554.72;465.55;;;;;;;;;;4962688;28;20035;-81
2021/08/06 04:27:18;;;;;;;558.53;472.48;;;;;;;;;;4962871;28;20113;-83
2021/08/06 04:29:44;;;;;;;557.20;472.15;;;;;;;;;;4955561;28;20026;-83
2021/08/06 04:32:32;;;;;;;557.15;470.50;;;;;;;;;;4962459;28;20053;-83
2021/08/06 04:34:58;;;;;;;557.17;463.85;;;;;;;;;;4963336;28;20110;-83
2021/08/06 04:37:24;;;;;;;557.90;466.77;;;;;;;;;;4953139;28;20069;-82
2021/08/06 04:39:50;;;;;;;559.67;471.65;;;;;;;;;;4962317;28;20394;-83
2021/08/06 04:42:17;;;;;;;561.88;472.40;;;;;;;;;;4936088;29;20395;-83
2021/08/06 04:44:44;;;;;;;558.50;465.50;;;;;;;;;;4948371;28;20112;-84
2021/08/06 04:47:10;;;;;;;559.50;468.45;;;;;;;;;;4947319;28;20031;-83
2021/08/06 04:49:36;;;;;;;560.10;465.77;;;;;;;;;;4971438;28;20848;-84
2021/08/06 04:52:03;;;;;;;554.50;458.33;;;;;;;;;;4953466;28;20061;-84
2021/08/06 04:54:29;;;;;;;555.92;461.58;;;;;;;;;;4955912;28;20023;-84
2021/08/06 04:57:13;;;;;;;553.63;459.95;;;;;;;;;;4938277;29;20032;-82
2021/08/06 04:59:39;;;;;;;555.08;461.25;;;;;;;;;;4938975;28;20096;-83
2021/08/06 05:02:05;;;;;;;554.58;462.92;;;;;;;;;;4952496;28;20122;-83
2021/08/06 05:04:31;;;;;;;556.53;466.60;;;;;;;;;;4953157;28;20609;-83
2021/08/06 05:06:57;;;;;;;556.25;460.73;;;;;;;;;;4972790;28;20108;-83
2021/08/06 05:09:54;;;;;;;559.03;469.40;;;;;;;;;;4955376;28;20019;-84
2021/08/06 05:12:20;;;;;;;554.08;453.35;;;;;;;;;;4957960;28;20027;-81
2021/08/06 05:14:46;;;;;;;560.67;468.25;;;;;;;;;;4969384;28;20056;-85
2021/08/06 05:17:12;;;;;;;564.00;471.45;;;;;;;;;;4961819;28;20015;-83
2021/08/06 05:19:39;;;;;;;559.95;466.65;;;;;;;;;;4958138;28;20023;-81
2021/08/06 05:22:05;;;;;;;562.58;472.63;;;;;;;;;;4951009;28;20055;-84
2021/08/06 05:24:31;;;;;;;560.35;465.60;;;;;;;;;;4951321;28;20549;-82
2021/08/06 05:26:57;;;;;;;559.28;463.02;;;;;;;;;;4957169;28;20662;-83
2021/08/06 05:29:23;;;;;;;562.75;470.35;;;;;;;;;;4944852;28;20399;-79
2021/08/06 05:31:56;;;;;;;561.63;468.58;;;;;;;;;;4953211;29;20030;-83
2021/08/06 05:34:22;;;;;;;562.25;461.42;;;;;;;;;;4950157;28;20028;-83
2021/08/06 05:36:48;;;;;;;571.83;471.65;;;;;;;;;;4948618;28;20491;-85
2021/08/06 05:39:14;;;;;;;571.67;477.55;;;;;;;;;;4963173;28;20078;-86
2021/08/06 05:41:40;;;;;;;565.67;472.52;;;;;;;;;;4951857;28;20081;-82
2021/08/06 05:44:34;;;;;;;568.65;472.85;;;;;;;;;;4954451;28;20035;-84
2021/08/06 05:47:00;;;;;;;562.03;466.98;;;;;;;;;;4949797;28;20097;-83
2021/08/06 05:49:26;;;;;;;562.17;469.45;;;;;;;;;;4969826;28;20130;-85
2021/08/06 05:51:52;;;;;;;561.10;470.00;;;;;;;;;;4951486;28;20019;-83
2021/08/06 05:54:18;;;;;;;571.38;482.05;;;;;;;;;;4949763;28;20019;-84
2021/08/06 05:56:47;;;;;;;567.20;481.25;;;;;;;;;;4942650;28;20026;-82
2021/08/06 05:59:13;;;;;;;570.35;484.15;;;;;;;;;;4943598;28;20849;-83
2021/08/06 06:01:39;;;;;;;574.03;481.50;;;;;;;;;;4951113;28;20042;-85
2021/08/06 06:04:04;;;;;;;578.28;487.13;;;;;;;;;;4951708;28;20431;-82
2021/08/06 06:06:33;;;;;;;583.47;491.98;;;;;;;;;;4951373;28;20122;-83
2021/08/06 06:09:09;;;;;;;589.65;494.73;;;;;;;;;;4947786;28;20020;-85
2021/08/06 06:11:35;;;;;;;588.75;493.48;;;;;;;;;;4934642;28;20063;-83
2021/08/06 06:14:01;;;;;;;586.00;491.15;;;;;;;;;;4932785;29;20023;-84
2021/08/06 06:16:30;;;;;;;583.83;488.58;;;;;;;;;;4943844;29;20119;-85
2021/08/06 06:18:56;;;;;;;593.63;502.45;;;;;;;;;;4952074;28;20172;-85
2021/08/06 06:21:44;;;;;;;587.58;490.23;;;;;;;;;;4946982;28;20089;-87
2021/08/06 06:24:10;;;;;;;596.13;500.02;;;;;;;;;;4943675;28;20043;-86
2021/08/06 06:26:36;;;;;;;612.97;521.03;;;;;;;;;;4948050;28;20039;-85
2021/08/06 06:29:02;;;;;;;571.53;483.02;;;;;;;;;;4950468;28;20156;-80
2021/08/06 06:31:28;;;;;;;580.03;492.42;;;;;;;;;;4950127;28;20032;-80
2021/08/06 06:36:59;;;;;;;553.30;460.05;;;;;;;;;;4946646;29;20732;-81
2021/08/06 06:39:25;;;;;;;560.53;474.60;;;;;;;;;;4941197;28;20487;-82
2021/08/06 06:41:51;;;;;;;561.08;472.48;;;;;;;;;;4933164;28;20035;-81
2021/08/06 06:44:17;;;;;;;561.00;473.58;;;;;;;;;;4951375;28;20035;-83
2021/08/06 06:46:43;;;;;;;568.85;481.50;;;;;;;;;;4950734;28;20030;-84
2021/08/06 06:49:31;;;;;;;625.30;533.30;;;;;;;;;;4939689;28;20874;-83
2021/08/06 06:51:57;;;;;;;563.50;474.63;;;;;;;;;;4938341;28;20028;-82
2021/08/06 06:54:23;;;;;;;584.67;497.95;;;;;;;;;;4952667;28;20050;-82
2021/08/06 06:56:49;;;;;;;627.30;538.80;;;;;;;;;;4949663;28;20039;-81
2021/08/06 06:59:16;;;;;;;563.35;474.27;;;;;;;;;;4945084;28;20134;-83
2021/08/06 07:02:04;;;;;;;558.65;475.35;;;;;;;;;;4954674;28;20019;-82
2021/08/06 07:04:30;;;;;;;564.08;472.55;;;;;;;;;;4937751;29;20418;-80
2021/08/06 07:06:56;;;;;;;579.63;493.65;;;;;;;;;;4958049;29;20045;-84
2021/08/06 07:09:22;;;;;;;628.08;536.63;;;;;;;;;;4956586;28;20034;-83
2021/08/06 07:11:48;;;;;;;563.17;478.23;;;;;;;;;;4950966;28;20043;-80
2021/08/06 07:14:34;;;;;;;561.60;478.40;;;;;;;;;;4946843;28;20027;-82
2021/08/06 07:17:00;;;;;;;560.28;473.48;;;;;;;;;;4952312;28;20275;-84
2021/08/06 07:19:26;;;;;;;557.25;473.08;;;;;;;;;;4955810;28;21498;-84
2021/08/06 07:21:52;;;;;;;558.67;472.02;;;;;;;;;;4954088;28;20030;-83
2021/08/06 07:24:18;;;;;;;587.17;503.42;;;;;;;;;;4956198;28;20428;-82
2021/08/06 07:26:53;;;;;;;626.30;541.20;;;;;;;;;;4946430;28;20056;-79
2021/08/06 07:29:19;;;;;;;633.17;544.00;;;;;;;;;;4990171;28;20029;-82
2021/08/06 07:31:45;;;;;;;566.95;486.63;;;;;;;;;;4975071;28;20027;-82
2021/08/06 07:34:11;;;;;;;628.50;553.45;;;;;;;;;;4955758;28;20514;-82
2021/08/06 07:36:37;;;;;;;574.63;498.75;;;;;;;;;;4954007;28;20039;-83
2021/08/06 07:39:13;;;;;;;582.03;504.55;;;;;;;;;;4949789;28;20026;-87
2021/08/06 07:41:39;;;;;;;569.38;498.35;;;;;;;;;;4950441;28;20042;-86
2021/08/06 07:44:06;;;;;;;565.05;495.92;;;;;;;;;;4956680;28;20104;-88
2021/08/06 07:46:32;;;;;;;568.17;504.48;;;;;;;;;;4956959;28;20023;-84
2021/08/06 07:48:58;;;;;;;593.25;528.28;;;;;;;;;;4959221;28;20416;-85
2021/08/06 07:51:30;;;;;;;620.90;548.22;;;;;;;;;;4958411;28;20118;-85
2021/08/06 07:53:56;;;;;;;644.33;574.58;;;;;;;;;;4975514;28;20073;-90
2021/08/06 07:56:22;;;;;;;652.45;582.88;;;;;;;;;;4956176;28;20483;-85
2021/08/06 07:58:48;;;;;;;636.08;567.17;;;;;;;;;;4973902;28;20035;-84
2021/08/06 08:01:14;;;;;;;620.55;553.38;;;;;;;;;;4981004;28;20038;-85
2021/08/06 08:04:11;;;;;;;636.92;568.33;;;;;;;;;;4955225;28;20031;-83
2021/08/06 08:06:37;;;;;;;648.72;579.88;;;;;;;;;;4972274;28;20026;-85
2021/08/06 08:09:03;;;;;;;636.85;569.45;;;;;;;;;;4952959;28;20551;-83
2021/08/06 08:11:29;;;;;;;642.92;575.97;;;;;;;;;;4951187;28;20319;-87
2021/08/06 08:13:56;;;;;;;647.08;580.22;;;;;;;;;;4945942;28;21719;-84
2021/08/06 08:16:22;;;;;;;674.20;605.92;;;;;;;;;;4951371;28;20090;-84
2021/08/06 08:18:48;;;;;;;650.28;582.88;;;;;;;;;;4946529;28;20118;-83
2021/08/06 08:21:14;;;;;;;647.00;579.75;;;;;;;;;;4945573;28;20205;-84
2021/08/06 08:23:40;;;;;;;654.33;586.65;;;;;;;;;;4956654;28;20065;-83
2021/08/06 08:26:05;;;;;;;643.53;577.05;;;;;;;;;;4941524;28;20640;-83
2021/08/06 08:28:32;;;;;;;645.35;578.13;;;;;;;;;;4964646;28;20073;-81
2021/08/06 08:30:58;;;;;;;641.67;574.60;;;;;;;;;;4959491;28;20518;-83
2021/08/06 08:33:25;;;;;;;650.03;582.53;;;;;;;;;;4954389;28;20057;-84
2021/08/06 08:35:51;;;;;;;652.63;584.22;;;;;;;;;;4944396;28;20094;-85
2021/08/06 08:38:17;;;;;;;646.10;578.85;;;;;;;;;;4945435;28;20058;-84
2021/08/06 08:40:43;;;;;;;617.38;552.08;;;;;;;;;;4962831;28;20031;-84
2021/08/06 08:43:09;;;;;;;630.03;563.88;;;;;;;;;;4946639;28;20028;-87
2021/08/06 08:45:40;;;;;;;626.47;560.20;;;;;;;;;;4942991;28;20035;-84
2021/08/06 08:48:07;;;;;;;;;;;;;;;;;;4961492;28;20023;-85
2021/08/06 08:50:33;;;;;;;607.00;541.03;;;;;;;;;;4958003;28;19914;-83
2021/08/06 08:53:00;;;;;;;613.38;547.88;;;;;;;;;;4960487;28;20031;-83
2021/08/06 08:55:26;;;;;;;625.75;559.22;;;;;;;;;;4965471;28;20031;-87
2021/08/06 08:57:52;;;;;;;641.72;574.63;;;;;;;;;;4940257;28;20043;-86
2021/08/06 09:00:21;;;;;;;643.38;576.78;;;;;;;;;;4955637;28;20034;-87
2021/08/06 09:02:47;;;;;;;634.10;568.38;;;;;;;;;;4940097;28;20110;-84
2021/08/06 09:05:14;;;;;;;645.78;579.42;;;;;;;;;;4930613;28;20650;-91
2021/08/06 09:07:41;;;;;;;650.85;584.10;;;;;;;;;;4960031;28;20038;-86
2021/08/06 09:10:16;;;;;;;664.28;596.78;;;;;;;;;;4937467;28;20031;-85
2021/08/06 09:13:02;;;;;;;652.55;586.25;;;;;;;;;;4944597;28;20027;-81
2021/08/06 09:15:43;;;;;;;656.28;589.78;;;;;;;;;;4963510;28;20019;-87
2021/08/06 09:18:27;;;;;;;658.95;592.78;;;;;;;;;;4940320;28;20031;-82
2021/08/06 09:20:55;;;;;;;663.75;598.08;;;;;;;;;;4941379;28;20043;-84
2021/08/06 09:23:40;;;;;;;667.33;601.67;;;;;;;;;;4940334;28;20050;-89
2021/08/06 09:26:07;;;;;;;676.65;610.90;;;;;;;;;;4937938;28;20117;-86
2021/08/06 09:28:33;;;;;;;682.08;616.63;;;;;;;;;;4936539;28;20387;-85
2021/08/06 09:31:14;;;;;;;698.20;632.40;;;;;;;;;;4969356;28;20472;-87
2021/08/06 09:33:40;;;;;;;699.05;633.20;;;;;;;;;;4956352;28;20038;-85
2021/08/06 09:36:10;;;;;;;689.20;624.30;;;;;;;;;;4961666;28;20031;-84
2021/08/06 09:38:36;;;;;;;709.80;643.67;;;;;;;;;;4947859;28;20046;-81
2021/08/06 09:41:02;;;;;;;726.55;660.42;;;;;;;;;;4959641;28;20045;-81
2021/08/06 09:43:28;;;;;;;733.15;667.17;;;;;;;;;;4938204;28;20379;-84
2021/08/06 09:45:54;;;;;;;733.28;667.55;;;;;;;;;;4949619;28;20027;-82
2021/08/06 09:48:23;;;;;;;727.22;661.40;;;;;;;;;;4948797;28;20042;-84
2021/08/06 09:50:50;;;;;;;711.03;645.00;;;;;;;;;;4939333;28;20395;-84
2021/08/06 09:53:40;;;;;;;703.42;637.55;;;;;;;;;;4962372;28;20026;-86
2021/08/06 09:56:15;;;;;;;676.33;610.75;;;;;;;;;;4959286;28;20385;-82
2021/08/06 09:58:57;;;;;;;671.25;605.90;;;;;;;;;;4952230;28;20055;-81
2021/08/06 10:01:23;;;;;;;653.65;588.63;;;;;;;;;;4962680;28;20173;-84
2021/08/06 10:03:50;;;;;;;658.83;593.25;;;;;;;;;;4962894;28;20072;-86
2021/08/06 10:06:18;;;;;;;634.47;570.15;;;;;;;;;;4959462;28;20035;-80
2021/08/06 10:08:45;;;;;;;627.25;562.75;;;;;;;;;;4954671;28;20478;-87
2021/08/06 10:11:11;;;;;;;623.72;559.13;;;;;;;;;;4954359;28;20027;-83
2021/08/06 10:13:38;;;;;;;625.40;560.70;;;;;;;;;;4951570;28;20433;-82
2021/08/06 10:16:09;;;;;;;616.13;551.78;;;;;;;;;;4957331;28;20090;-85
2021/08/06 10:18:35;;;;;;;618.53;553.75;;;;;;;;;;4961457;28;20054;-81
2021/08/06 10:21:01;;;;;;;631.88;566.50;;;;;;;;;;4996609;28;20081;-84
2021/08/06 10:23:27;;;;;;;624.15;559.22;;;;;;;;;;4946469;28;20134;-84
2021/08/06 10:25:53;;;;;;;618.17;553.20;;;;;;;;;;4950527;28;20156;-84
2021/08/06 10:31:43;;;;;;;610.33;545.88;;;;;;;;;;4949322;28;20074;-82
2021/08/06 10:34:13;;;;;;;611.20;546.83;;;;;;;;;;4941029;28;20036;-82
2021/08/06 10:36:47;;;;;;;617.55;552.90;;;;;;;;;;4945100;28;20111;-83
2021/08/06 10:39:33;;;;;;;605.88;541.85;;;;;;;;;;4937003;28;20745;-86
2021/08/06 10:42:03;;;;;;;615.15;550.95;;;;;;;;;;4950391;28;20046;-82
2021/08/06 10:44:48;;;;;;;635.55;570.95;;;;;;;;;;4954565;28;20034;-85
2021/08/06 10:47:14;;;;;;;639.40;575.42;;;;;;;;;;4949195;28;20039;-83
2021/08/06 10:49:40;;;;;;;654.78;590.17;;;;;;;;;;4950451;28;20033;-83
2021/08/06 10:52:24;;;;;;;644.80;580.58;;;;;;;;;;4951451;28;20023;-80
2021/08/06 10:54:50;;;;;;;636.20;572.13;;;;;;;;;;4957390;28;20028;-81
2021/08/06 10:57:19;;;;;;;629.70;565.72;;;;;;;;;;4959374;28;20045;-80
2021/08/06 10:59:47;;;;;;;629.65;565.25;;;;;;;;;;4952514;28;20027;-86
2021/08/06 11:02:33;;;;;;;627.60;563.58;;;;;;;;;;4953170;28;20031;-81
2021/08/06 11:04:59;;;;;;;617.00;553.22;;;;;;;;;;4950062;28;20176;-85
2021/08/06 11:07:32;;;;;;;617.70;553.72;;;;;;;;;;5031290;28;20087;-81
2021/08/06 11:09:59;;;;;;;616.08;552.38;;;;;;;;;;4956706;28;20418;-83
2021/08/06 11:12:40;;;;;;;610.58;546.88;;;;;;;;;;4956126;28;20478;-87
2021/08/06 11:15:06;;;;;;;608.95;544.88;;;;;;;;;;4949862;28;20032;-84
2021/08/06 11:17:34;;;;;;;616.13;552.08;;;;;;;;;;4947439;29;20684;-80
2021/08/06 11:20:08;;;;;;;619.42;555.63;;;;;;;;;;4946846;28;20028;-82
2021/08/06 11:22:35;;;;;;;621.40;557.55;;;;;;;;;;4936017;28;20503;-83
2021/08/06 11:25:19;;;;;;;623.85;559.95;;;;;;;;;;4934241;28;20031;-83
2021/08/06 11:27:49;;;;;;;628.75;564.42;;;;;;;;;;4966955;28;20024;-85
2021/08/06 11:30:20;;;;;;;627.58;563.10;;;;;;;;;;4950061;28;20031;-82
2021/08/06 11:32:46;;;;;;;613.40;549.30;;;;;;;;;;4950030;28;20330;-83
2021/08/06 11:35:12;;;;;;;619.22;554.67;;;;;;;;;;4946609;28;20078;-80
2021/08/06 11:37:47;;;;;;;629.22;564.83;;;;;;;;;;4951267;28;20039;-84
2021/08/06 11:40:14;;;;;;;654.65;589.85;;;;;;;;;;4953283;28;20039;-85
2021/08/06 11:42:40;;;;;;;686.08;620.88;;;;;;;;;;4954989;28;20028;-87
2021/08/06 11:45:08;;;;;;;691.33;626.95;;;;;;;;;;4970691;28;20058;-85
2021/08/06 11:47:35;;;;;;;709.25;643.95;;;;;;;;;;4959312;28;20069;-86
2021/08/06 11:50:01;;;;;;;717.55;652.38;;;;;;;;;;4948674;28;20027;-78
2021/08/06 11:52:42;;;;;;;726.17;661.03;;;;;;;;;;4969355;28;20022;-87
2021/08/06 11:55:08;;;;;;;732.85;667.47;;;;;;;;;;4957261;28;20028;-84
2021/08/06 11:57:51;;;;;;;737.95;672.22;;;;;;;;;;4970492;28;20028;-82
2021/08/06 12:00:27;;;;;;;715.38;650.33;;;;;;;;;;4955765;28;20063;-82
2021/08/06 12:03:20;;;;;;;697.60;633.03;;;;;;;;;;4958940;28;20394;-82
2021/08/06 12:05:47;;;;;;;680.13;615.60;;;;;;;;;;4960887;28;20438;-89
2021/08/06 12:08:16;;;;;;;666.05;601.92;;;;;;;;;;4977733;28;20561;-83
2021/08/06 12:10:45;;;;;;;653.92;589.78;;;;;;;;;;4968888;28;20034;-82
2021/08/06 12:13:12;;;;;;;642.30;578.40;;;;;;;;;;4962333;28;20039;-86
2021/08/06 12:15:38;;;;;;;635.88;572.20;;;;;;;;;;5000792;28;20035;-84
2021/08/06 12:18:19;;;;;;;637.55;573.63;;;;;;;;;;4953528;28;20043;-88
2021/08/06 12:20:52;;;;;;;636.40;572.08;;;;;;;;;;4957829;28;20027;-87
2021/08/06 12:23:18;;;;;;;631.72;567.63;;;;;;;;;;4960269;28;20047;-87
2021/08/06 12:26:03;;;;;;;626.70;562.70;;;;;;;;;;4951604;28;20027;-82
2021/08/06 12:28:32;;;;;;;621.35;557.30;;;;;;;;;;4951473;28;20495;-85
2021/08/06 12:31:12;;;;;;;625.03;560.67;;;;;;;;;;4950032;29;20058;-85
2021/08/06 12:33:39;;;;;;;618.22;553.97;;;;;;;;;;4956804;28;20606;-89
2021/08/06 12:36:09;;;;;;;614.83;550.78;;;;;;;;;;4956085;28;20494;-81
2021/08/06 12:38:36;;;;;;;605.80;541.72;;;;;;;;;;4956151;29;20031;-80
2021/08/06 12:41:05;;;;;;;603.70;539.55;;;;;;;;;;4944422;28;20031;-85
2021/08/06 12:43:31;;;;;;;600.47;536.60;;;;;;;;;;4938766;28;20712;-85
2021/08/06 12:46:12;;;;;;;587.15;523.60;;;;;;;;;;4960729;28;20035;-88
2021/08/06 12:48:58;;;;;;;585.30;521.63;;;;;;;;;;4962165;28;20038;-87
2021/08/06 12:51:24;;;;;;;573.22;509.98;;;;;;;;;;4971939;28;20336;-86
2021/08/06 12:53:50;;;;;;;578.03;514.80;;;;;;;;;;4958230;28;20072;-85
2021/08/06 12:56:19;;;;;;;572.50;509.35;;;;;;;;;;4961475;28;20027;-85
2021/08/06 12:58:45;;;;;;;568.22;505.42;;;;;;;;;;4963287;28;20035;-85
2021/08/06 13:01:11;;;;;;;580.60;517.20;;;;;;;;;;4952907;28;20041;-82
2021/08/06 13:03:43;;;;;;;574.15;511.13;;;;;;;;;;4963977;28;20595;-83
2021/08/06 13:06:09;;;;;;;575.83;512.70;;;;;;;;;;4949845;28;20612;-82
2021/08/06 13:08:45;;;;;;;583.97;520.67;;;;;;;;;;4948659;28;20430;-84
2021/08/06 13:11:11;;;;;;;595.83;531.97;;;;;;;;;;4949063;28;20130;-82
2021/08/06 13:13:39;;;;;;;611.50;548.17;;;;;;;;;;4954601;28;20051;-81
2021/08/06 13:16:06;;;;;;;650.42;586.67;;;;;;;;;;4951298;28;20027;-82
2021/08/06 13:18:32;;;;;;;668.70;604.67;;;;;;;;;;4951824;28;20047;-83
2021/08/06 13:20:58;;;;;;;670.17;606.20;;;;;;;;;;4946706;28;20024;-82
2021/08/06 13:23:25;;;;;;;665.45;601.72;;;;;;;;;;4942918;28;20044;-82
2021/08/06 13:25:51;;;;;;;665.63;601.67;;;;;;;;;;4945756;29;20545;-84
2021/08/06 13:28:17;;;;;;;652.22;588.22;;;;;;;;;;4953662;28;20038;-82
2021/08/06 13:30:44;;;;;;;645.17;581.03;;;;;;;;;;4951907;28;20463;-84
2021/08/06 13:33:10;;;;;;;636.53;572.63;;;;;;;;;;4951621;28;20477;-81
2021/08/06 13:35:36;;;;;;;630.47;566.17;;;;;;;;;;4952316;28;20508;-82
2021/08/06 13:38:02;;;;;;;613.80;550.10;;;;;;;;;;4951874;28;20376;-82
2021/08/06 13:40:29;;;;;;;608.60;544.90;;;;;;;;;;4951102;28;20027;-81
2021/08/06 13:42:56;;;;;;;600.45;537.00;;;;;;;;;;4951141;28;20031;-81
2021/08/06 13:45:23;;;;;;;611.53;547.55;;;;;;;;;;4950791;28;20031;-81
2021/08/06 13:47:49;;;;;;;609.80;546.53;;;;;;;;;;4951140;28;20394;-85
2021/08/06 13:50:16;;;;;;;630.75;567.08;;;;;;;;;;4951890;28;20047;-81
2021/08/06 13:52:42;;;;;;;665.72;601.53;;;;;;;;;;4951125;28;20023;-81
2021/08/06 13:55:08;;;;;;;691.83;627.03;;;;;;;;;;4951732;28;20450;-81
2021/08/06 13:57:34;;;;;;;694.33;630.28;;;;;;;;;;4950725;28;20115;-80
2021/08/06 14:00:01;;;;;;;711.08;646.67;;;;;;;;;;4951029;28;20051;-82
2021/08/06 14:02:27;;;;;;;718.45;653.95;;;;;;;;;;4952295;28;20561;-81
2021/08/06 14:04:53;;;;;;;725.22;660.83;;;;;;;;;;4949875;28;20051;-83
2021/08/06 14:07:19;;;;;;;732.03;667.40;;;;;;;;;;4949791;28;20378;-81
2021/08/06 14:09:46;;;;;;;737.47;672.63;;;;;;;;;;4949973;28;20602;-81
2021/08/06 14:12:12;;;;;;;729.20;664.72;;;;;;;;;;4950791;28;20039;-80
2021/08/06 14:14:39;;;;;;;729.30;664.80;;;;;;;;;;4950797;28;20524;-81
2021/08/06 14:17:05;;;;;;;723.63;659.17;;;;;;;;;;4951136;28;20063;-82